sensor_id;sensor_type;location;lat;lon;timestamp;temperature;humidity
7240;DHT22;3661;53.288;10.458;2022-10-16T00:02:12;14.10;99.90
7240;DHT22;3661;53.288;10.458;2022-10-16T00:04:50;14.10;99.90
7240;DHT22;3661;53.288;10.458;2022-10-16T00:07:22;14.00;99.90
7240;DHT22;3661;53.288;10.458;2022-10-16T00:09:54;14.00;99.90
7240;DHT22;3661;53.288;10.458;2022-10-16T00:12:26;14.00;99.90
7240;DHT22;3661;53.288;10.458;2022-10-16T00:14:58;14.00;99.90
7240;DHT22;3661;53.288;10.458;2022-10-16T00:17:30;13.90;99.90
7240;DHT22;3661;53.288;10.458;2022-10-16T00:20:08;13.90;99.90
7240;DHT22;3661;53.288;10.458;2022-10-16T00:22:40;13.90;99.90
7240;DHT22;3661;53.288;10.458;2022-10-16T00:25:13;13.90;99.90
7240;DHT22;3661;53.288;10.458;2022-10-16T00:27:45;13.90;99.90
7240;DHT22;3661;53.288;10.458;2022-10-16T00:30:17;13.80;99.90
7240;DHT22;3661;53.288;10.458;2022-10-16T00:32:49;13.80;99.90
7240;DHT22;3661;53.288;10.458;2022-10-16T00:35:23;13.80;99.90
7240;DHT22;3661;53.288;10.458;2022-10-16T00:37:55;13.70;99.90
7240;DHT22;3661;53.288;10.458;2022-10-16T00:40:30;13.70;99.90
7240;DHT22;3661;53.288;10.458;2022-10-16T00:43:04;13.70;99.90
7240;DHT22;3661;53.288;10.458;2022-10-16T00:45:36;13.70;99.90
7240;DHT22;3661;53.288;10.458;2022-10-16T00:48:11;13.70;99.90
7240;DHT22;3661;53.288;10.458;2022-10-16T00:50:49;13.60;99.90
7240;DHT22;3661;53.288;10.458;2022-10-16T00:53:21;13.60;99.90
7240;DHT22;3661;53.288;10.458;2022-10-16T00:55:55;13.60;99.90
7240;DHT22;3661;53.288;10.458;2022-10-16T00:58:27;13.60;99.90
7240;DHT22;3661;53.288;10.458;2022-10-16T01:00:59;13.50;99.90
7240;DHT22;3661;53.288;10.458;2022-10-16T01:03:33;13.50;99.90
7240;DHT22;3661;53.288;10.458;2022-10-16T01:06:19;13.50;99.90
7240;DHT22;3661;53.288;10.458;2022-10-16T01:09:11;13.50;99.90
7240;DHT22;3661;53.288;10.458;2022-10-16T01:11:54;13.40;99.90
7240;DHT22;3661;53.288;10.458;2022-10-16T01:14:36;13.40;99.90
7240;DHT22;3661;53.288;10.458;2022-10-16T01:17:13;13.40;99.90
7240;DHT22;3661;53.288;10.458;2022-10-16T01:20:10;13.30;99.90
7240;DHT22;3661;53.288;10.458;2022-10-16T01:23:02;13.30;99.90
7240;DHT22;3661;53.288;10.458;2022-10-16T01:26:12;13.30;99.90
7240;DHT22;3661;53.288;10.458;2022-10-16T01:28:55;13.30;99.90
7240;DHT22;3661;53.288;10.458;2022-10-16T01:31:31;13.20;99.90
7240;DHT22;3661;53.288;10.458;2022-10-16T01:34:09;13.20;99.90
7240;DHT22;3661;53.288;10.458;2022-10-16T01:36:49;13.20;99.90
7240;DHT22;3661;53.288;10.458;2022-10-16T01:39:25;13.20;99.90
7240;DHT22;3661;53.288;10.458;2022-10-16T01:42:03;13.10;99.90
7240;DHT22;3661;53.288;10.458;2022-10-16T01:44:41;13.10;99.90
7240;DHT22;3661;53.288;10.458;2022-10-16T01:47:15;13.10;99.90
7240;DHT22;3661;53.288;10.458;2022-10-16T01:49:49;13.10;99.90
7240;DHT22;3661;53.288;10.458;2022-10-16T01:52:26;13.00;99.90
7240;DHT22;3661;53.288;10.458;2022-10-16T01:55:04;13.00;99.90
7240;DHT22;3661;53.288;10.458;2022-10-16T01:57:42;13.00;99.90
7240;DHT22;3661;53.288;10.458;2022-10-16T02:00:20;13.00;99.90
7240;DHT22;3661;53.288;10.458;2022-10-16T02:02:54;12.90;99.90
7240;DHT22;3661;53.288;10.458;2022-10-16T02:05:29;12.90;99.90
7240;DHT22;3661;53.288;10.458;2022-10-16T02:08:05;12.90;99.90
7240;DHT22;3661;53.288;10.458;2022-10-16T02:10:38;12.90;99.90
7240;DHT22;3661;53.288;10.458;2022-10-16T02:13:12;12.80;99.90
7240;DHT22;3661;53.288;10.458;2022-10-16T02:15:50;12.80;99.90
7240;DHT22;3661;53.288;10.458;2022-10-16T02:18:22;12.80;99.90
7240;DHT22;3661;53.288;10.458;2022-10-16T02:21:00;12.80;99.90
7240;DHT22;3661;53.288;10.458;2022-10-16T02:23:37;12.70;99.90
7240;DHT22;3661;53.288;10.458;2022-10-16T02:26:15;12.70;99.90
7240;DHT22;3661;53.288;10.458;2022-10-16T02:28:53;12.70;99.90
7240;DHT22;3661;53.288;10.458;2022-10-16T02:31:32;12.70;99.90
7240;DHT22;3661;53.288;10.458;2022-10-16T02:34:06;12.60;99.90
7240;DHT22;3661;53.288;10.458;2022-10-16T02:36:40;12.60;99.90
7240;DHT22;3661;53.288;10.458;2022-10-16T02:39:13;12.60;99.90
7240;DHT22;3661;53.288;10.458;2022-10-16T02:41:46;12.60;99.90
7240;DHT22;3661;53.288;10.458;2022-10-16T02:44:18;12.50;99.90
7240;DHT22;3661;53.288;10.458;2022-10-16T02:46:51;12.50;99.90
7240;DHT22;3661;53.288;10.458;2022-10-16T02:49:27;12.50;99.90
7240;DHT22;3661;53.288;10.458;2022-10-16T02:52:02;12.50;99.90
7240;DHT22;3661;53.288;10.458;2022-10-16T02:54:34;12.50;99.90
7240;DHT22;3661;53.288;10.458;2022-10-16T02:57:06;12.40;99.90
7240;DHT22;3661;53.288;10.458;2022-10-16T02:59:38;12.40;99.90
7240;DHT22;3661;53.288;10.458;2022-10-16T03:02:12;12.40;99.90
7240;DHT22;3661;53.288;10.458;2022-10-16T03:04:44;12.40;99.90
7240;DHT22;3661;53.288;10.458;2022-10-16T03:07:16;12.40;99.90
7240;DHT22;3661;53.288;10.458;2022-10-16T03:09:48;12.30;99.90
7240;DHT22;3661;53.288;10.458;2022-10-16T03:12:20;12.30;99.90
7240;DHT22;3661;53.288;10.458;2022-10-16T03:14:53;12.30;99.90
7240;DHT22;3661;53.288;10.458;2022-10-16T03:17:26;12.30;99.90
7240;DHT22;3661;53.288;10.458;2022-10-16T03:19:58;12.30;99.90
7240;DHT22;3661;53.288;10.458;2022-10-16T03:22:30;12.30;99.90
7240;DHT22;3661;53.288;10.458;2022-10-16T03:25:03;12.20;99.90
7240;DHT22;3661;53.288;10.458;2022-10-16T03:27:35;12.20;99.90
7240;DHT22;3661;53.288;10.458;2022-10-16T03:30:09;12.20;99.90
7240;DHT22;3661;53.288;10.458;2022-10-16T03:32:45;12.20;99.90
7240;DHT22;3661;53.288;10.458;2022-10-16T03:35:25;12.10;99.90
7240;DHT22;3661;53.288;10.458;2022-10-16T03:37:58;12.10;99.90
7240;DHT22;3661;53.288;10.458;2022-10-16T03:40:30;12.10;99.90
7240;DHT22;3661;53.288;10.458;2022-10-16T03:43:02;12.10;99.90
7240;DHT22;3661;53.288;10.458;2022-10-16T03:45:35;12.10;99.90
7240;DHT22;3661;53.288;10.458;2022-10-16T03:48:08;12.10;99.90
7240;DHT22;3661;53.288;10.458;2022-10-16T03:50:40;12.10;99.90
7240;DHT22;3661;53.288;10.458;2022-10-16T03:53:12;12.10;99.90
7240;DHT22;3661;53.288;10.458;2022-10-16T03:55:45;12.00;99.90
7240;DHT22;3661;53.288;10.458;2022-10-16T03:58:17;12.00;99.90
7240;DHT22;3661;53.288;10.458;2022-10-16T04:00:50;12.00;99.90
7240;DHT22;3661;53.288;10.458;2022-10-16T04:03:24;12.00;99.90
7240;DHT22;3661;53.288;10.458;2022-10-16T04:05:56;12.00;99.90
7240;DHT22;3661;53.288;10.458;2022-10-16T04:08:30;12.00;99.90
7240;DHT22;3661;53.288;10.458;2022-10-16T04:11:05;12.00;99.90
7240;DHT22;3661;53.288;10.458;2022-10-16T04:13:38;11.90;99.90
7240;DHT22;3661;53.288;10.458;2022-10-16T04:16:13;11.90;99.90
7240;DHT22;3661;53.288;10.458;2022-10-16T04:18:47;11.90;99.90
7240;DHT22;3661;53.288;10.458;2022-10-16T04:21:19;11.90;99.90
7240;DHT22;3661;53.288;10.458;2022-10-16T04:23:51;11.90;99.90
7240;DHT22;3661;53.288;10.458;2022-10-16T04:26:23;11.90;99.90
7240;DHT22;3661;53.288;10.458;2022-10-16T04:28:56;11.80;99.90
7240;DHT22;3661;53.288;10.458;2022-10-16T04:31:31;11.80;99.90
7240;DHT22;3661;53.288;10.458;2022-10-16T04:34:04;11.80;99.90
7240;DHT22;3661;53.288;10.458;2022-10-16T04:36:36;11.80;99.90
7240;DHT22;3661;53.288;10.458;2022-10-16T04:39:08;11.80;99.90
7240;DHT22;3661;53.288;10.458;2022-10-16T04:41:40;11.80;99.90
7240;DHT22;3661;53.288;10.458;2022-10-16T04:44:13;11.80;99.90
7240;DHT22;3661;53.288;10.458;2022-10-16T04:46:45;11.70;99.90
7240;DHT22;3661;53.288;10.458;2022-10-16T04:49:19;11.70;99.90
7240;DHT22;3661;53.288;10.458;2022-10-16T04:51:56;11.70;99.90
7240;DHT22;3661;53.288;10.458;2022-10-16T04:54:29;11.70;99.90
7240;DHT22;3661;53.288;10.458;2022-10-16T04:57:01;11.70;99.90
7240;DHT22;3661;53.288;10.458;2022-10-16T04:59:33;11.70;99.90
7240;DHT22;3661;53.288;10.458;2022-10-16T05:02:05;11.70;99.90
7240;DHT22;3661;53.288;10.458;2022-10-16T05:04:38;11.70;99.90
7240;DHT22;3661;53.288;10.458;2022-10-16T05:07:11;11.70;99.90
7240;DHT22;3661;53.288;10.458;2022-10-16T05:09:43;11.70;99.90
7240;DHT22;3661;53.288;10.458;2022-10-16T05:12:15;11.70;99.90
7240;DHT22;3661;53.288;10.458;2022-10-16T05:14:47;11.70;99.90
7240;DHT22;3661;53.288;10.458;2022-10-16T05:17:19;11.70;99.90
7240;DHT22;3661;53.288;10.458;2022-10-16T05:19:52;11.70;99.90
7240;DHT22;3661;53.288;10.458;2022-10-16T05:22:25;11.70;99.90
7240;DHT22;3661;53.288;10.458;2022-10-16T05:24:57;11.70;99.90
7240;DHT22;3661;53.288;10.458;2022-10-16T05:27:32;11.70;99.90
7240;DHT22;3661;53.288;10.458;2022-10-16T05:30:05;11.70;99.90
7240;DHT22;3661;53.288;10.458;2022-10-16T05:32:38;11.70;99.90
7240;DHT22;3661;53.288;10.458;2022-10-16T05:35:14;11.70;99.90
7240;DHT22;3661;53.288;10.458;2022-10-16T05:37:48;11.60;99.90
7240;DHT22;3661;53.288;10.458;2022-10-16T05:40:22;11.70;99.90
7240;DHT22;3661;53.288;10.458;2022-10-16T05:42:55;11.60;99.90
7240;DHT22;3661;53.288;10.458;2022-10-16T05:45:27;11.70;99.90
7240;DHT22;3661;53.288;10.458;2022-10-16T05:47:59;11.60;99.90
7240;DHT22;3661;53.288;10.458;2022-10-16T05:50:34;11.60;99.90
7240;DHT22;3661;53.288;10.458;2022-10-16T05:53:06;11.60;99.90
7240;DHT22;3661;53.288;10.458;2022-10-16T05:55:38;11.60;99.90
7240;DHT22;3661;53.288;10.458;2022-10-16T05:58:10;11.60;99.90
7240;DHT22;3661;53.288;10.458;2022-10-16T06:00:42;11.60;99.90
7240;DHT22;3661;53.288;10.458;2022-10-16T06:03:14;11.60;99.90
7240;DHT22;3661;53.288;10.458;2022-10-16T06:05:48;11.60;99.90
7240;DHT22;3661;53.288;10.458;2022-10-16T06:08:24;11.60;99.90
7240;DHT22;3661;53.288;10.458;2022-10-16T06:11:03;11.60;99.90
7240;DHT22;3661;53.288;10.458;2022-10-16T06:13:35;11.60;99.90
7240;DHT22;3661;53.288;10.458;2022-10-16T06:16:07;11.60;99.90
7240;DHT22;3661;53.288;10.458;2022-10-16T06:18:40;11.60;99.90
7240;DHT22;3661;53.288;10.458;2022-10-16T06:21:17;11.60;99.90
7240;DHT22;3661;53.288;10.458;2022-10-16T06:23:49;11.60;99.90
7240;DHT22;3661;53.288;10.458;2022-10-16T06:26:23;11.60;99.90
7240;DHT22;3661;53.288;10.458;2022-10-16T06:28:56;11.60;99.90
7240;DHT22;3661;53.288;10.458;2022-10-16T06:31:28;11.60;99.90
7240;DHT22;3661;53.288;10.458;2022-10-16T06:34:01;11.60;99.90
7240;DHT22;3661;53.288;10.458;2022-10-16T06:36:37;11.50;99.90
7240;DHT22;3661;53.288;10.458;2022-10-16T06:39:09;11.50;99.90
7240;DHT22;3661;53.288;10.458;2022-10-16T06:41:41;11.50;99.90
7240;DHT22;3661;53.288;10.458;2022-10-16T06:44:13;11.50;99.90
7240;DHT22;3661;53.288;10.458;2022-10-16T06:46:46;11.50;99.90
7240;DHT22;3661;53.288;10.458;2022-10-16T06:49:18;11.50;99.90
7240;DHT22;3661;53.288;10.458;2022-10-16T06:51:54;11.50;99.90
7240;DHT22;3661;53.288;10.458;2022-10-16T06:54:26;11.50;99.90
7240;DHT22;3661;53.288;10.458;2022-10-16T06:56:59;11.50;99.90
7240;DHT22;3661;53.288;10.458;2022-10-16T06:59:32;11.50;99.90
7240;DHT22;3661;53.288;10.458;2022-10-16T07:02:04;11.50;99.90
7240;DHT22;3661;53.288;10.458;2022-10-16T07:04:37;11.50;99.90
7240;DHT22;3661;53.288;10.458;2022-10-16T07:07:22;11.50;99.90
7240;DHT22;3661;53.288;10.458;2022-10-16T07:09:57;11.50;99.90
7240;DHT22;3661;53.288;10.458;2022-10-16T07:12:33;11.50;99.90
7240;DHT22;3661;53.288;10.458;2022-10-16T07:15:55;11.50;99.90
7240;DHT22;3661;53.288;10.458;2022-10-16T07:18:36;11.50;99.90
7240;DHT22;3661;53.288;10.458;2022-10-16T07:21:16;11.50;99.90
7240;DHT22;3661;53.288;10.458;2022-10-16T07:23:51;11.60;99.90
7240;DHT22;3661;53.288;10.458;2022-10-16T07:26:28;11.60;99.90
7240;DHT22;3661;53.288;10.458;2022-10-16T07:29:02;11.60;99.90
7240;DHT22;3661;53.288;10.458;2022-10-16T07:31:34;11.60;99.90
7240;DHT22;3661;53.288;10.458;2022-10-16T07:34:06;11.70;99.90
7240;DHT22;3661;53.288;10.458;2022-10-16T07:36:40;11.70;99.90
7240;DHT22;3661;53.288;10.458;2022-10-16T07:39:15;11.80;99.90
7240;DHT22;3661;53.288;10.458;2022-10-16T07:41:47;11.80;99.90
7240;DHT22;3661;53.288;10.458;2022-10-16T07:44:21;11.90;99.90
7240;DHT22;3661;53.288;10.458;2022-10-16T07:46:53;11.90;99.90
7240;DHT22;3661;53.288;10.458;2022-10-16T07:49:25;12.00;99.90
7240;DHT22;3661;53.288;10.458;2022-10-16T07:52:03;12.00;99.90
7240;DHT22;3661;53.288;10.458;2022-10-16T07:54:38;12.10;99.90
7240;DHT22;3661;53.288;10.458;2022-10-16T07:57:10;12.20;99.90
7240;DHT22;3661;53.288;10.458;2022-10-16T07:59:42;12.30;99.90
7240;DHT22;3661;53.288;10.458;2022-10-16T08:02:17;12.30;99.90
7240;DHT22;3661;53.288;10.458;2022-10-16T08:04:49;12.40;99.90
7240;DHT22;3661;53.288;10.458;2022-10-16T08:07:22;12.50;99.90
7240;DHT22;3661;53.288;10.458;2022-10-16T08:09:55;12.60;99.90
7240;DHT22;3661;53.288;10.458;2022-10-16T08:12:28;12.70;99.90
7240;DHT22;3661;53.288;10.458;2022-10-16T08:15:01;12.90;99.90
7240;DHT22;3661;53.288;10.458;2022-10-16T08:17:33;13.00;99.90
7240;DHT22;3661;53.288;10.458;2022-10-16T08:20:06;13.10;99.90
7240;DHT22;3661;53.288;10.458;2022-10-16T08:22:38;13.30;99.90
7240;DHT22;3661;53.288;10.458;2022-10-16T08:25:12;13.50;99.90
7240;DHT22;3661;53.288;10.458;2022-10-16T08:27:44;13.70;99.90
7240;DHT22;3661;53.288;10.458;2022-10-16T08:33:44;14.00;99.90
7240;DHT22;3661;53.288;10.458;2022-10-16T08:36:17;14.20;99.90
7240;DHT22;3661;53.288;10.458;2022-10-16T08:38:49;14.30;99.90
7240;DHT22;3661;53.288;10.458;2022-10-16T08:41:51;14.40;99.90
7240;DHT22;3661;53.288;10.458;2022-10-16T08:44:51;14.60;99.90
7240;DHT22;3661;53.288;10.458;2022-10-16T08:47:39;14.70;99.90
7240;DHT22;3661;53.288;10.458;2022-10-16T08:50:19;14.90;99.90
7240;DHT22;3661;53.288;10.458;2022-10-16T08:52:53;15.10;99.90
7240;DHT22;3661;53.288;10.458;2022-10-16T08:55:34;15.20;99.90
7240;DHT22;3661;53.288;10.458;2022-10-16T08:58:15;15.40;99.90
7240;DHT22;3661;53.288;10.458;2022-10-16T09:00:50;15.50;99.90
7240;DHT22;3661;53.288;10.458;2022-10-16T09:03:33;15.70;99.90
7240;DHT22;3661;53.288;10.458;2022-10-16T09:06:28;15.90;99.90
7240;DHT22;3661;53.288;10.458;2022-10-16T09:09:36;16.00;99.90
7240;DHT22;3661;53.288;10.458;2022-10-16T09:12:23;16.20;99.90
7240;DHT22;3661;53.288;10.458;2022-10-16T09:15:06;16.40;99.90
7240;DHT22;3661;53.288;10.458;2022-10-16T09:17:52;16.60;99.90
7240;DHT22;3661;53.288;10.458;2022-10-16T09:20:40;16.80;99.90
7240;DHT22;3661;53.288;10.458;2022-10-16T09:23:17;17.00;99.90
7240;DHT22;3661;53.288;10.458;2022-10-16T09:25:50;17.10;99.90
7240;DHT22;3661;53.288;10.458;2022-10-16T09:28:22;17.30;99.90
7240;DHT22;3661;53.288;10.458;2022-10-16T09:30:55;17.50;99.90
7240;DHT22;3661;53.288;10.458;2022-10-16T09:33:30;17.60;99.90
7240;DHT22;3661;53.288;10.458;2022-10-16T09:36:05;17.70;99.90
7240;DHT22;3661;53.288;10.458;2022-10-16T09:38:37;17.80;99.90
7240;DHT22;3661;53.288;10.458;2022-10-16T09:41:16;17.90;99.90
7240;DHT22;3661;53.288;10.458;2022-10-16T09:43:54;18.00;99.90
7240;DHT22;3661;53.288;10.458;2022-10-16T09:46:30;18.20;99.90
7240;DHT22;3661;53.288;10.458;2022-10-16T09:49:05;18.30;99.90
7240;DHT22;3661;53.288;10.458;2022-10-16T09:51:38;18.40;99.90
7240;DHT22;3661;53.288;10.458;2022-10-16T09:54:15;18.60;99.90
7240;DHT22;3661;53.288;10.458;2022-10-16T09:57:03;18.70;99.90
7240;DHT22;3661;53.288;10.458;2022-10-16T09:59:53;18.90;99.90
7240;DHT22;3661;53.288;10.458;2022-10-16T10:02:30;19.10;99.90
7240;DHT22;3661;53.288;10.458;2022-10-16T10:05:05;19.30;99.90
7240;DHT22;3661;53.288;10.458;2022-10-16T10:07:42;19.50;99.90
7240;DHT22;3661;53.288;10.458;2022-10-16T10:10:21;19.60;99.90
7240;DHT22;3661;53.288;10.458;2022-10-16T10:12:53;19.70;99.90
7240;DHT22;3661;53.288;10.458;2022-10-16T10:15:28;19.80;99.90
7240;DHT22;3661;53.288;10.458;2022-10-16T10:18:15;19.90;99.90
7240;DHT22;3661;53.288;10.458;2022-10-16T10:21:00;20.00;99.90
7240;DHT22;3661;53.288;10.458;2022-10-16T10:23:32;20.10;99.90
7240;DHT22;3661;53.288;10.458;2022-10-16T10:26:06;20.20;99.90
7240;DHT22;3661;53.288;10.458;2022-10-16T10:28:54;20.30;99.90
7240;DHT22;3661;53.288;10.458;2022-10-16T10:31:34;20.30;99.90
7240;DHT22;3661;53.288;10.458;2022-10-16T10:34:24;20.40;99.90
7240;DHT22;3661;53.288;10.458;2022-10-16T10:37:03;20.40;99.90
7240;DHT22;3661;53.288;10.458;2022-10-16T10:39:41;20.40;99.90
7240;DHT22;3661;53.288;10.458;2022-10-16T10:42:23;20.40;99.90
7240;DHT22;3661;53.288;10.458;2022-10-16T10:45:15;20.30;99.90
7240;DHT22;3661;53.288;10.458;2022-10-16T10:48:05;20.30;99.90
7240;DHT22;3661;53.288;10.458;2022-10-16T10:50:48;20.20;99.90
7240;DHT22;3661;53.288;10.458;2022-10-16T10:53:31;20.20;99.90
7240;DHT22;3661;53.288;10.458;2022-10-16T10:56:24;20.20;99.90
7240;DHT22;3661;53.288;10.458;2022-10-16T10:59:19;20.20;99.90
7240;DHT22;3661;53.288;10.458;2022-10-16T11:01:59;20.30;99.90
7240;DHT22;3661;53.288;10.458;2022-10-16T11:04:56;20.30;99.90
7240;DHT22;3661;53.288;10.458;2022-10-16T11:07:39;20.40;99.90
7240;DHT22;3661;53.288;10.458;2022-10-16T11:10:15;20.30;99.90
7240;DHT22;3661;53.288;10.458;2022-10-16T11:12:52;20.40;99.90
7240;DHT22;3661;53.288;10.458;2022-10-16T11:15:29;20.30;99.90
7240;DHT22;3661;53.288;10.458;2022-10-16T11:18:06;20.30;99.90
7240;DHT22;3661;53.288;10.458;2022-10-16T11:20:42;20.20;99.90
7240;DHT22;3661;53.288;10.458;2022-10-16T11:23:23;20.20;99.90
7240;DHT22;3661;53.288;10.458;2022-10-16T11:26:00;20.20;99.90
7240;DHT22;3661;53.288;10.458;2022-10-16T11:28:37;20.30;99.90
7240;DHT22;3661;53.288;10.458;2022-10-16T11:31:14;20.30;99.90
7240;DHT22;3661;53.288;10.458;2022-10-16T11:33:51;20.20;99.90
7240;DHT22;3661;53.288;10.458;2022-10-16T11:36:33;20.30;99.90
7240;DHT22;3661;53.288;10.458;2022-10-16T11:39:19;20.20;99.90
7240;DHT22;3661;53.288;10.458;2022-10-16T11:41:53;20.20;99.90
7240;DHT22;3661;53.288;10.458;2022-10-16T11:44:51;20.20;99.90
7240;DHT22;3661;53.288;10.458;2022-10-16T11:47:27;20.20;99.90
7240;DHT22;3661;53.288;10.458;2022-10-16T11:50:06;20.00;99.90
7240;DHT22;3661;53.288;10.458;2022-10-16T11:52:44;19.90;99.90
7240;DHT22;3661;53.288;10.458;2022-10-16T11:55:24;19.90;99.90
7240;DHT22;3661;53.288;10.458;2022-10-16T11:58:03;19.90;99.90
7240;DHT22;3661;53.288;10.458;2022-10-16T12:00:42;19.90;99.90
7240;DHT22;3661;53.288;10.458;2022-10-16T12:03:21;19.90;99.90
7240;DHT22;3661;53.288;10.458;2022-10-16T12:06:13;19.90;99.90
7240;DHT22;3661;53.288;10.458;2022-10-16T12:08:49;19.90;99.90
7240;DHT22;3661;53.288;10.458;2022-10-16T12:11:32;19.90;99.90
7240;DHT22;3661;53.288;10.458;2022-10-16T12:14:07;19.80;99.90
7240;DHT22;3661;53.288;10.458;2022-10-16T12:16:54;19.70;99.90
7240;DHT22;3661;53.288;10.458;2022-10-16T12:19:28;19.70;99.90
7240;DHT22;3661;53.288;10.458;2022-10-16T12:22:02;19.60;99.90
7240;DHT22;3661;53.288;10.458;2022-10-16T12:24:36;19.60;99.90
7240;DHT22;3661;53.288;10.458;2022-10-16T12:27:24;19.50;99.90
7240;DHT22;3661;53.288;10.458;2022-10-16T12:29:59;19.50;99.90
7240;DHT22;3661;53.288;10.458;2022-10-16T12:32:36;19.40;99.90
7240;DHT22;3661;53.288;10.458;2022-10-16T12:35:18;19.40;99.90
7240;DHT22;3661;53.288;10.458;2022-10-16T12:37:52;19.40;99.90
7240;DHT22;3661;53.288;10.458;2022-10-16T12:40:27;19.40;99.90
7240;DHT22;3661;53.288;10.458;2022-10-16T12:46:01;19.30;99.90
7240;DHT22;3661;53.288;10.458;2022-10-16T12:48:35;19.20;99.90
7240;DHT22;3661;53.288;10.458;2022-10-16T12:51:11;19.10;99.90
7240;DHT22;3661;53.288;10.458;2022-10-16T12:53:43;19.10;99.90
7240;DHT22;3661;53.288;10.458;2022-10-16T12:56:22;19.10;99.90
7240;DHT22;3661;53.288;10.458;2022-10-16T12:59:07;19.00;99.90
7240;DHT22;3661;53.288;10.458;2022-10-16T13:02:01;19.00;99.90
7240;DHT22;3661;53.288;10.458;2022-10-16T13:04:55;19.00;99.90
7240;DHT22;3661;53.288;10.458;2022-10-16T13:07:47;19.10;99.90
7240;DHT22;3661;53.288;10.458;2022-10-16T13:10:26;19.10;99.90
7240;DHT22;3661;53.288;10.458;2022-10-16T13:16:12;19.10;99.90
7240;DHT22;3661;53.288;10.458;2022-10-16T13:18:55;19.20;99.90
7240;DHT22;3661;53.288;10.458;2022-10-16T13:21:38;19.20;99.90
7240;DHT22;3661;53.288;10.458;2022-10-16T13:24:25;19.20;99.90
7240;DHT22;3661;53.288;10.458;2022-10-16T13:27:04;19.20;99.90
7240;DHT22;3661;53.288;10.458;2022-10-16T13:29:39;19.30;99.90
7240;DHT22;3661;53.288;10.458;2022-10-16T13:32:15;19.30;99.90
7240;DHT22;3661;53.288;10.458;2022-10-16T13:34:50;19.30;99.90
7240;DHT22;3661;53.288;10.458;2022-10-16T13:37:24;19.30;99.90
7240;DHT22;3661;53.288;10.458;2022-10-16T13:40:17;19.30;99.90
7240;DHT22;3661;53.288;10.458;2022-10-16T13:42:50;19.30;99.90
7240;DHT22;3661;53.288;10.458;2022-10-16T13:45:24;19.30;99.90
7240;DHT22;3661;53.288;10.458;2022-10-16T13:48:10;19.20;99.90
7240;DHT22;3661;53.288;10.458;2022-10-16T13:50:43;19.30;99.90
7240;DHT22;3661;53.288;10.458;2022-10-16T13:53:15;19.30;99.90
7240;DHT22;3661;53.288;10.458;2022-10-16T13:55:47;19.30;99.90
7240;DHT22;3661;53.288;10.458;2022-10-16T13:58:19;19.30;99.90
7240;DHT22;3661;53.288;10.458;2022-10-16T14:00:56;19.30;99.90
7240;DHT22;3661;53.288;10.458;2022-10-16T14:03:30;19.30;99.90
7240;DHT22;3661;53.288;10.458;2022-10-16T14:06:05;19.30;99.90
7240;DHT22;3661;53.288;10.458;2022-10-16T14:08:42;19.30;99.90
7240;DHT22;3661;53.288;10.458;2022-10-16T14:11:20;19.30;99.90
7240;DHT22;3661;53.288;10.458;2022-10-16T14:13:54;19.30;99.90
7240;DHT22;3661;53.288;10.458;2022-10-16T14:16:28;19.20;99.90
7240;DHT22;3661;53.288;10.458;2022-10-16T14:19:04;19.10;99.90
7240;DHT22;3661;53.288;10.458;2022-10-16T14:21:37;19.10;99.90
7240;DHT22;3661;53.288;10.458;2022-10-16T14:24:12;19.10;99.90
7240;DHT22;3661;53.288;10.458;2022-10-16T14:26:44;19.10;99.90
7240;DHT22;3661;53.288;10.458;2022-10-16T14:29:19;19.10;99.90
7240;DHT22;3661;53.288;10.458;2022-10-16T14:31:55;19.10;99.90
7240;DHT22;3661;53.288;10.458;2022-10-16T14:34:31;19.10;99.90
7240;DHT22;3661;53.288;10.458;2022-10-16T14:37:08;19.00;99.90
7240;DHT22;3661;53.288;10.458;2022-10-16T14:39:49;19.00;99.90
7240;DHT22;3661;53.288;10.458;2022-10-16T14:42:23;19.00;99.90
7240;DHT22;3661;53.288;10.458;2022-10-16T14:44:55;18.90;99.90
7240;DHT22;3661;53.288;10.458;2022-10-16T14:47:28;18.90;99.90
7240;DHT22;3661;53.288;10.458;2022-10-16T14:50:02;18.90;99.90
7240;DHT22;3661;53.288;10.458;2022-10-16T14:52:34;18.80;99.90
7240;DHT22;3661;53.288;10.458;2022-10-16T14:55:07;18.80;99.90
7240;DHT22;3661;53.288;10.458;2022-10-16T14:57:41;18.80;99.90
7240;DHT22;3661;53.288;10.458;2022-10-16T15:00:18;18.90;99.90
7240;DHT22;3661;53.288;10.458;2022-10-16T15:02:51;18.90;99.90
7240;DHT22;3661;53.288;10.458;2022-10-16T15:05:27;18.90;99.90
7240;DHT22;3661;53.288;10.458;2022-10-16T15:07:59;19.00;99.90
7240;DHT22;3661;53.288;10.458;2022-10-16T15:10:35;19.00;99.90
7240;DHT22;3661;53.288;10.458;2022-10-16T15:13:12;19.00;99.90
7240;DHT22;3661;53.288;10.458;2022-10-16T15:15:46;19.00;99.90
7240;DHT22;3661;53.288;10.458;2022-10-16T15:18:19;19.00;99.90
7240;DHT22;3661;53.288;10.458;2022-10-16T15:20:54;19.00;99.90
7240;DHT22;3661;53.288;10.458;2022-10-16T15:23:26;18.90;99.90
7240;DHT22;3661;53.288;10.458;2022-10-16T15:25:58;18.80;99.90
7240;DHT22;3661;53.288;10.458;2022-10-16T15:28:30;18.80;99.90
7240;DHT22;3661;53.288;10.458;2022-10-16T15:31:06;18.70;99.90
7240;DHT22;3661;53.288;10.458;2022-10-16T15:33:38;18.60;99.90
7240;DHT22;3661;53.288;10.458;2022-10-16T15:36:13;18.50;99.90
7240;DHT22;3661;53.288;10.458;2022-10-16T15:38:46;18.50;99.90
7240;DHT22;3661;53.288;10.458;2022-10-16T15:41:18;18.40;99.90
7240;DHT22;3661;53.288;10.458;2022-10-16T15:43:51;18.30;99.90
7240;DHT22;3661;53.288;10.458;2022-10-16T15:46:24;18.20;99.90
7240;DHT22;3661;53.288;10.458;2022-10-16T15:48:57;18.20;99.90
7240;DHT22;3661;53.288;10.458;2022-10-16T15:51:31;18.10;99.90
7240;DHT22;3661;53.288;10.458;2022-10-16T15:54:04;18.00;99.90
7240;DHT22;3661;53.288;10.458;2022-10-16T15:56:36;17.90;99.90
7240;DHT22;3661;53.288;10.458;2022-10-16T15:59:09;17.80;99.90
7240;DHT22;3661;53.288;10.458;2022-10-16T16:01:41;17.70;99.90
7240;DHT22;3661;53.288;10.458;2022-10-16T16:04:13;17.70;99.90
7240;DHT22;3661;53.288;10.458;2022-10-16T16:06:48;17.60;99.90
7240;DHT22;3661;53.288;10.458;2022-10-16T16:09:20;17.50;99.90
7240;DHT22;3661;53.288;10.458;2022-10-16T16:11:52;17.40;99.90
7240;DHT22;3661;53.288;10.458;2022-10-16T16:14:24;17.30;99.90
7240;DHT22;3661;53.288;10.458;2022-10-16T16:16:58;17.30;99.90
7240;DHT22;3661;53.288;10.458;2022-10-16T16:19:30;17.20;99.90
7240;DHT22;3661;53.288;10.458;2022-10-16T16:22:04;17.10;99.90
7240;DHT22;3661;53.288;10.458;2022-10-16T16:24:36;17.00;99.90
7240;DHT22;3661;53.288;10.458;2022-10-16T16:27:08;16.90;99.90
7240;DHT22;3661;53.288;10.458;2022-10-16T16:29:40;16.80;99.90
7240;DHT22;3661;53.288;10.458;2022-10-16T16:32:13;16.70;99.90
7240;DHT22;3661;53.288;10.458;2022-10-16T16:34:45;16.60;99.90
7240;DHT22;3661;53.288;10.458;2022-10-16T16:37:19;16.50;99.90
7240;DHT22;3661;53.288;10.458;2022-10-16T16:39:51;16.40;99.90
7240;DHT22;3661;53.288;10.458;2022-10-16T16:42:25;16.30;99.90
7240;DHT22;3661;53.288;10.458;2022-10-16T16:44:58;16.20;99.90
7240;DHT22;3661;53.288;10.458;2022-10-16T16:47:32;16.10;99.90
7240;DHT22;3661;53.288;10.458;2022-10-16T16:50:04;16.00;99.90
7240;DHT22;3661;53.288;10.458;2022-10-16T16:52:39;15.90;99.90